Terminal Aerodrome Forecast
Issued by NWS Pendleton, OR

Current Version | Previous Version | Text Only | Print | Product List | Glossary On
Versions: 1 2 3 4 5 6 7 8 9 10 11 12 13 14 15 16
000
FTUS46 KPDT 301720
TAFPDT
TAF
KPDT 301720Z 3018/3118 30016G24KT P6SM -SHRA OVC060
     FM302100 28018G26KT P6SM VCSH BKN070
     FM310400 25012KT P6SM SCT080
     FM310700 20006KT P6SM FEW080 SCT200=

USA.gov is the U.S. government's official web portal to all federal, state and local government web resources and services.